Time;durP1;ratioP1;P1;durP2;ratioP2;P2;SDS_P1;SDS_P2;PMS_P1;PMS_P2;Temp;Humidity;BMP_temperature;BMP_pressure;BME280_temperature;BME280_humidity;BME280_pressure;Samples;Min_cycle;Max_cycle;Signal;HPM_P1;HPM_P2
2023/04/25 00:01:29;;;;;;;17.60;3.42;;;8.00;99.90;;;;;;5035781;28;20354;-70
2023/04/25 00:03:55;;;;;;;14.48;2.75;;;8.10;99.90;;;;;;5033705;28;20108;-71
2023/04/25 00:06:21;;;;;;;18.98;4.05;;;8.10;99.90;;;;;;5033701;28;20432;-71
2023/04/25 00:08:48;;;;;;;15.68;3.50;;;8.10;99.90;;;;;;5033618;28;20049;-71
2023/04/25 00:11:14;;;;;;;15.05;3.55;;;8.10;99.90;;;;;;5035057;28;20374;-71
2023/04/25 00:13:41;;;;;;;14.88;3.95;;;8.10;99.90;;;;;;5034446;28;20029;-71
2023/04/25 00:16:07;;;;;;;19.25;3.53;;;8.10;99.90;;;;;;5034199;28;20491;-71
2023/04/25 00:18:33;;;;;;;15.07;4.05;;;8.00;99.90;;;;;;5033821;28;20072;-71
2023/04/25 00:20:58;;;;;;;15.27;3.45;;;8.00;99.90;;;;;;5034134;28;20029;-71
2023/04/25 00:23:24;;;;;;;18.17;3.70;;;7.90;99.90;;;;;;5034291;28;20025;-71
2023/04/25 00:25:50;;;;;;;11.70;3.03;;;7.90;99.90;;;;;;5038216;28;20159;-71
2023/04/25 00:28:16;;;;;;;19.33;3.22;;;7.90;99.90;;;;;;5042609;28;20037;-71
2023/04/25 00:30:42;;;;;;;16.05;3.00;;;7.90;99.90;;;;;;5046524;28;20021;-71
2023/04/25 00:33:08;;;;;;;17.27;3.42;;;7.90;99.90;;;;;;5035786;28;20452;-71
2023/04/25 00:35:34;;;;;;;16.02;3.05;;;7.80;99.90;;;;;;5049074;28;20022;-71
2023/04/25 00:38:00;;;;;;;13.02;3.05;;;7.90;99.90;;;;;;5040080;28;20178;-71
2023/04/25 00:40:26;;;;;;;19.48;4.18;;;7.90;99.90;;;;;;5040550;28;20529;-71
2023/04/25 00:42:52;;;;;;;11.07;3.17;;;7.90;99.90;;;;;;5047558;28;20473;-71
2023/04/25 00:45:19;;;;;;;15.00;3.20;;;7.90;99.90;;;;;;5034517;28;20064;-70
2023/04/25 00:47:45;;;;;;;10.88;3.03;;;7.80;99.90;;;;;;5032226;28;20041;-70
2023/04/25 00:50:12;;;;;;;12.15;3.58;;;7.80;99.90;;;;;;5032235;28;20036;-70
2023/04/25 00:52:43;;;;;;;8.82;2.45;;;7.70;99.90;;;;;;5031832;28;20551;-71
2023/04/25 00:55:10;;;;;;;8.90;1.87;;;7.70;99.90;;;;;;5032647;28;20223;-71
2023/04/25 00:57:36;;;;;;;8.93;2.13;;;7.60;99.90;;;;;;5031929;28;20036;-71
2023/04/25 01:00:05;;;;;;;10.27;2.72;;;7.60;99.90;;;;;;5030882;28;20029;-70
2023/04/25 01:02:31;;;;;;;14.70;2.85;;;7.50;99.90;;;;;;5030072;28;20703;-70
2023/04/25 01:04:57;;;;;;;12.30;2.30;;;7.50;99.90;;;;;;5031828;28;20025;-70
2023/04/25 01:07:23;;;;;;;12.15;2.50;;;7.40;99.90;;;;;;5032464;28;20049;-71
2023/04/25 01:09:51;;;;;;;16.58;3.03;;;7.40;99.90;;;;;;5032129;28;20112;-71
2023/04/25 01:12:16;;;;;;;13.32;2.85;;;7.30;99.90;;;;;;5031855;28;20059;-71
2023/04/25 01:14:42;;;;;;;10.95;2.63;;;7.30;99.90;;;;;;5032954;28;20377;-71
2023/04/25 01:17:09;;;;;;;15.40;3.25;;;7.30;99.90;;;;;;5027915;28;20385;-72
2023/04/25 01:19:35;;;;;;;9.98;2.40;;;7.30;99.90;;;;;;5034675;28;20029;-71
2023/04/25 01:22:01;;;;;;;15.32;3.22;;;7.30;99.90;;;;;;5041444;28;20030;-70
2023/04/25 01:24:27;;;;;;;16.40;3.10;;;7.40;99.90;;;;;;5048691;28;20079;-70
2023/04/25 01:26:56;;;;;;;15.10;2.70;;;7.40;99.90;;;;;;5035021;28;20091;-71
2023/04/25 01:29:22;;;;;;;10.90;2.67;;;7.40;99.90;;;;;;5042793;28;20029;-70
2023/04/25 01:31:47;;;;;;;12.52;2.97;;;7.50;99.90;;;;;;5043483;28;20040;-70
2023/04/25 01:34:13;;;;;;;16.17;3.38;;;7.60;99.90;;;;;;5031560;28;20384;-70
2023/04/25 01:36:40;;;;;;;12.60;2.58;;;7.60;99.90;;;;;;5037067;28;20034;-72
2023/04/25 01:39:06;;;;;;;15.40;2.88;;;7.60;99.90;;;;;;5049339;28;20069;-71
2023/04/25 01:41:32;;;;;;;16.27;3.47;;;7.70;99.90;;;;;;5046635;28;20118;-71
2023/04/25 01:43:58;;;;;;;16.00;3.10;;;7.70;99.90;;;;;;5044784;28;20121;-71
2023/04/25 01:46:24;;;;;;;13.48;2.67;;;7.70;99.90;;;;;;5036302;28;20044;-71
2023/04/25 01:48:49;;;;;;;8.40;2.40;;;7.70;99.90;;;;;;5042525;28;20102;-71
2023/04/25 01:51:15;;;;;;;16.58;2.60;;;7.80;99.90;;;;;;5039869;28;20075;-71
2023/04/25 01:53:41;;;;;;;12.73;2.85;;;7.80;99.90;;;;;;5041984;28;20478;-71
2023/04/25 01:56:07;;;;;;;13.90;2.67;;;7.90;99.90;;;;;;5046238;28;20072;-70
2023/04/25 01:58:33;;;;;;;13.30;2.78;;;7.90;99.90;;;;;;5035290;28;20061;-71
2023/04/25 02:00:58;;;;;;;12.07;2.55;;;8.00;99.90;;;;;;5030168;28;20029;-71
2023/04/25 02:03:24;;;;;;;14.90;2.50;;;8.00;99.90;;;;;;5030624;28;20442;-71
2023/04/25 02:05:49;;;;;;;13.65;2.50;;;8.00;99.90;;;;;;5039104;28;20131;-71
2023/04/25 02:08:17;;;;;;;10.85;2.22;;;8.00;99.90;;;;;;5047180;28;20057;-70
2023/04/25 02:10:42;;;;;;;11.55;2.50;;;8.00;99.90;;;;;;5035363;28;20112;-70
2023/04/25 02:13:08;;;;;;;15.90;2.97;;;8.00;99.90;;;;;;5047305;28;20064;-71
2023/04/25 02:15:33;;;;;;;12.60;2.80;;;8.00;99.90;;;;;;5045016;28;20036;-71
2023/04/25 02:18:02;;;;;;;11.73;2.28;;;7.90;99.90;;;;;;5041312;28;20026;-71
2023/04/25 02:20:30;;;;;;;15.55;2.28;;;7.90;99.90;;;;;;5052109;28;20060;-71
2023/04/25 02:22:56;;;;;;;13.15;2.33;;;7.80;99.90;;;;;;5039392;28;20385;-71
2023/04/25 02:25:22;;;;;;;17.70;3.22;;;7.80;99.90;;;;;;5047905;28;20096;-70
2023/04/25 02:27:48;;;;;;;14.63;2.55;;;7.80;99.90;;;;;;5046695;28;20053;-71
2023/04/25 02:30:15;;;;;;;14.30;2.63;;;7.70;99.90;;;;;;5040933;28;20108;-71
2023/04/25 02:32:41;;;;;;;14.38;2.88;;;7.70;99.90;;;;;;5051769;28;20033;-71
2023/04/25 02:35:07;;;;;;;12.98;3.00;;;7.60;99.90;;;;;;5040901;28;20029;-71
2023/04/25 02:37:34;;;;;;;11.20;2.40;;;7.60;99.90;;;;;;5054580;28;20867;-70
2023/04/25 02:40:00;;;;;;;15.75;2.83;;;7.60;99.90;;;;;;5055605;28;20041;-71
2023/04/25 02:42:26;;;;;;;10.27;2.50;;;7.60;99.90;;;;;;5055453;28;20021;-71
2023/04/25 02:44:52;;;;;;;12.35;3.08;;;7.60;99.90;;;;;;5055042;28;20555;-72
2023/04/25 02:47:18;;;;;;;10.73;2.47;;;7.60;99.90;;;;;;5055194;28;20076;-71
2023/04/25 02:49:43;;;;;;;10.52;2.30;;;7.60;99.90;;;;;;5055309;28;20028;-70
2023/04/25 02:52:09;;;;;;;11.00;2.78;;;7.60;99.90;;;;;;5036235;28;20025;-69
2023/04/25 02:54:34;;;;;;;14.85;2.65;;;7.70;99.90;;;;;;5035138;28;20037;-70
2023/04/25 02:57:02;;;;;;;14.35;2.33;;;7.70;99.90;;;;;;5033810;28;20030;-70
2023/04/25 02:59:27;;;;;;;14.30;2.42;;;7.70;99.90;;;;;;5035122;28;20108;-70
2023/04/25 03:01:53;;;;;;;10.10;2.30;;;7.70;99.90;;;;;;5034850;28;20117;-70
2023/04/25 03:04:19;;;;;;;15.95;2.65;;;7.70;99.90;;;;;;5035403;28;20061;-70
2023/04/25 03:06:44;;;;;;;15.23;2.85;;;7.70;99.90;;;;;;5035026;28;20363;-70
2023/04/25 03:09:10;;;;;;;7.75;2.70;;;7.70;99.90;;;;;;5035051;28;20025;-71
2023/04/25 03:11:38;;;;;;;15.43;2.15;;;7.70;99.90;;;;;;5035086;28;20029;-69
2023/04/25 03:14:03;;;;;;;12.50;2.65;;;7.70;99.90;;;;;;5034982;28;20030;-70
2023/04/25 03:16:29;;;;;;;12.98;2.85;;;7.70;99.90;;;;;;5033504;28;20040;-71
2023/04/25 03:18:55;;;;;;;14.27;3.78;;;7.70;99.90;;;;;;5034773;28;20034;-70
2023/04/25 03:21:20;;;;;;;10.98;2.17;;;7.70;99.90;;;;;;5035123;28;20100;-71
2023/04/25 03:23:46;;;;;;;11.05;2.50;;;7.70;99.90;;;;;;5034579;28;20029;-70
2023/04/25 03:26:11;;;;;;;8.90;2.05;;;7.70;99.90;;;;;;5034316;28;20057;-71
2023/04/25 03:28:37;;;;;;;11.35;2.45;;;7.60;99.90;;;;;;5034568;28;20104;-70
2023/04/25 03:31:02;;;;;;;12.90;2.15;;;7.60;99.90;;;;;;5034362;28;20018;-70
2023/04/25 03:33:28;;;;;;;11.90;2.15;;;7.60;99.90;;;;;;5033538;28;20485;-70
2023/04/25 03:35:54;;;;;;;13.23;2.97;;;7.60;99.90;;;;;;5034508;28;20025;-71
2023/04/25 03:38:19;;;;;;;8.48;1.65;;;7.50;99.90;;;;;;5034650;28;20028;-71
2023/04/25 03:40:45;;;;;;;8.57;1.58;;;7.30;99.90;;;;;;5034669;28;20044;-70
2023/04/25 03:43:11;;;;;;;9.20;1.90;;;7.00;99.90;;;;;;5034448;28;20029;-72
2023/04/25 03:45:36;;;;;;;9.80;2.20;;;6.80;99.90;;;;;;5034261;28;20061;-71
2023/04/25 03:48:02;;;;;;;8.75;1.90;;;6.60;99.90;;;;;;5034280;28;20056;-71
2023/04/25 03:50:27;;;;;;;7.00;1.58;;;6.40;99.90;;;;;;5033036;28;20034;-71
2023/04/25 03:52:53;;;;;;;9.60;1.80;;;6.30;99.90;;;;;;5034069;28;20441;-72
2023/04/25 03:55:18;;;;;;;10.52;2.38;;;6.30;99.90;;;;;;5034009;28;20018;-71
2023/04/25 03:57:44;;;;;;;7.75;1.90;;;6.20;99.90;;;;;;5034463;28;20040;-70
2023/04/25 04:00:10;;;;;;;9.90;3.22;;;6.20;99.90;;;;;;5033833;28;20614;-71
2023/04/25 04:02:37;;;;;;;8.20;2.13;;;6.20;99.90;;;;;;5034421;28;20038;-71
2023/04/25 04:05:03;;;;;;;9.27;2.38;;;6.20;99.90;;;;;;5034559;28;20036;-70
2023/04/25 04:07:29;;;;;;;10.82;1.95;;;6.20;99.90;;;;;;5033602;28;20044;-72
2023/04/25 04:09:54;;;;;;;7.80;2.08;;;6.20;99.90;;;;;;5034293;28;20468;-72
2023/04/25 04:12:20;;;;;;;9.63;1.90;;;6.20;99.90;;;;;;5034378;28;20539;-71
2023/04/25 04:14:48;;;;;;;13.50;2.40;;;6.30;99.90;;;;;;5033847;28;20536;-69
2023/04/25 04:17:14;;;;;;;13.40;2.13;;;6.30;99.90;;;;;;5034253;28;20053;-70
2023/04/25 04:19:40;;;;;;;11.15;2.50;;;6.30;99.90;;;;;;5034469;28;20057;-71
2023/04/25 04:22:05;;;;;;;8.10;2.13;;;6.40;99.90;;;;;;5034116;28;20540;-71
2023/04/25 04:24:31;;;;;;;17.73;2.78;;;6.50;99.90;;;;;;5033885;28;20030;-71
2023/04/25 04:26:56;;;;;;;13.13;2.00;;;6.50;99.90;;;;;;5033902;28;20050;-71
2023/04/25 04:29:22;;;;;;;15.23;2.72;;;6.50;99.90;;;;;;5032449;28;20469;-71
2023/04/25 04:31:49;;;;;;;10.32;2.22;;;6.60;99.90;;;;;;5034001;28;20036;-71
2023/04/25 04:34:16;;;;;;;13.55;2.38;;;6.70;99.90;;;;;;5033936;28;20124;-71
2023/04/25 04:36:42;;;;;;;12.05;2.50;;;6.70;99.90;;;;;;5032990;28;20041;-72
2023/04/25 04:39:09;;;;;;;10.60;2.92;;;6.70;99.90;;;;;;5033656;28;20424;-72
2023/04/25 04:41:34;;;;;;;10.05;2.85;;;6.80;99.90;;;;;;5033779;28;20076;-72
2023/04/25 04:44:01;;;;;;;17.08;2.70;;;6.80;99.90;;;;;;5033675;28;20037;-69
2023/04/25 04:46:27;;;;;;;16.70;2.92;;;6.90;99.90;;;;;;5033397;28;20095;-70
2023/04/25 04:48:53;;;;;;;12.23;2.45;;;6.90;99.90;;;;;;5033359;28;20462;-71
2023/04/25 04:51:20;;;;;;;14.70;2.72;;;7.00;99.90;;;;;;5033414;28;20108;-70
2023/04/25 04:53:46;;;;;;;11.13;2.70;;;7.00;99.90;;;;;;5033411;28;20052;-71
2023/04/25 04:56:11;;;;;;;14.15;2.70;;;7.10;99.90;;;;;;5033014;28;20497;-70
2023/04/25 04:58:37;;;;;;;16.33;2.40;;;7.10;99.90;;;;;;5033246;28;20029;-70
2023/04/25 05:01:02;;;;;;;14.95;2.40;;;7.10;99.90;;;;;;5033190;28;20033;-70
2023/04/25 05:03:28;;;;;;;13.30;2.22;;;7.10;99.90;;;;;;5012954;28;20358;-70
2023/04/25 05:05:54;;;;;;;15.20;2.67;;;7.10;99.90;;;;;;5012090;28;20029;-70
2023/04/25 05:08:19;;;;;;;11.32;2.38;;;7.10;99.90;;;;;;5013527;28;20109;-71
2023/04/25 05:10:45;;;;;;;15.35;2.60;;;7.20;99.90;;;;;;5013480;28;20036;-71
2023/04/25 05:13:10;;;;;;;14.55;2.20;;;7.30;99.90;;;;;;5013557;28;20026;-70
2023/04/25 05:15:36;;;;;;;11.75;3.20;;;7.40;99.90;;;;;;5013820;28;20034;-69
2023/04/25 05:18:02;;;;;;;15.15;4.63;;;7.50;99.90;;;;;;5013135;28;20028;-70
2023/04/25 05:20:27;;;;;;;15.23;2.30;;;7.60;99.90;;;;;;5013492;28;20504;-69
2023/04/25 05:22:53;;;;;;;20.50;3.38;;;7.70;99.90;;;;;;5012979;28;20532;-69
2023/04/25 05:25:18;;;;;;;10.35;2.45;;;7.80;99.90;;;;;;5013267;28;20113;-70
2023/04/25 05:27:44;;;;;;;29.42;4.97;;;7.90;99.90;;;;;;5015674;28;20136;-71
2023/04/25 05:30:10;;;;;;;12.63;2.80;;;7.90;99.90;;;;;;5033675;28;20124;-71
2023/04/25 05:32:35;;;;;;;16.02;3.85;;;8.00;99.90;;;;;;5032890;28;20037;-70
2023/04/25 05:35:01;;;;;;;10.20;2.70;;;8.10;99.90;;;;;;5033019;28;20462;-70
2023/04/25 05:37:27;;;;;;;18.65;4.75;;;8.20;99.90;;;;;;5032958;28;20476;-71
2023/04/25 05:39:53;;;;;;;12.43;2.53;;;8.30;99.90;;;;;;5033116;28;20112;-72
2023/04/25 05:42:18;;;;;;;12.38;2.95;;;8.40;99.90;;;;;;5032668;28;20022;-69
2023/04/25 05:44:44;;;;;;;9.55;2.20;;;8.50;99.90;;;;;;5032927;28;20113;-72
2023/04/25 05:47:10;;;;;;;13.20;3.00;;;8.60;99.90;;;;;;5032753;28;20174;-71
2023/04/25 05:49:35;;;;;;;9.10;2.53;;;8.60;99.90;;;;;;5036110;28;20040;-72
2023/04/25 05:52:01;;;;;;;8.80;2.10;;;8.70;99.90;;;;;;5036522;28;20033;-71
2023/04/25 05:54:26;;;;;;;10.88;2.03;;;8.80;99.90;;;;;;5035460;28;20116;-71
2023/04/25 05:56:52;;;;;;;9.82;2.10;;;8.80;99.90;;;;;;5036196;28;20434;-71
2023/04/25 05:59:18;;;;;;;7.18;1.45;;;8.80;99.90;;;;;;5036519;28;20025;-71
2023/04/25 06:01:43;;;;;;;7.63;1.83;;;8.90;99.90;;;;;;5036678;28;20390;-72
2023/04/25 06:04:09;;;;;;;14.95;3.30;;;8.90;99.90;;;;;;5036776;28;20030;-72
2023/04/25 06:06:34;;;;;;;11.45;4.13;;;8.90;99.90;;;;;;5036425;28;20026;-72
2023/04/25 06:09:00;;;;;;;16.25;2.70;;;8.90;99.90;;;;;;5036463;28;20040;-71
2023/04/25 06:11:25;;;;;;;14.07;3.70;;;9.00;99.90;;;;;;5036434;28;20048;-72
2023/04/25 06:13:51;;;;;;;11.05;3.30;;;9.00;99.90;;;;;;5036237;28;20029;-72
2023/04/25 06:16:17;;;;;;;7.07;1.70;;;9.10;99.90;;;;;;5034844;28;20131;-71
2023/04/25 06:18:42;;;;;;;12.73;2.05;;;9.10;99.90;;;;;;5035695;28;20056;-71
2023/04/25 06:21:08;;;;;;;12.48;2.42;;;9.00;99.90;;;;;;5035916;28;20384;-72
2023/04/25 06:23:33;;;;;;;12.63;2.33;;;9.00;99.90;;;;;;5035972;28;20022;-71
2023/04/25 06:25:59;;;;;;;7.88;2.42;;;8.90;99.90;;;;;;5035484;28;20073;-72
2023/04/25 06:28:24;;;;;;;10.95;3.10;;;8.80;99.90;;;;;;5035705;28;20034;-72
2023/04/25 06:30:50;;;;;;;15.57;4.10;;;8.80;99.90;;;;;;5035886;28;20025;-70
2023/04/25 06:33:16;;;;;;;11.55;3.47;;;8.90;99.90;;;;;;5033493;28;20033;-71
2023/04/25 06:35:42;;;;;;;10.02;2.88;;;9.10;99.90;;;;;;5035988;28;20044;-72
2023/04/25 06:38:08;;;;;;;8.13;1.83;;;9.20;99.90;;;;;;5040278;28;20017;-71
2023/04/25 06:40:34;;;;;;;12.45;2.10;;;9.30;99.90;;;;;;5035532;28;20160;-71
2023/04/25 06:42:59;;;;;;;11.18;2.22;;;9.50;99.90;;;;;;5035698;28;20061;-70
2023/04/25 06:45:25;;;;;;;9.88;1.67;;;9.80;99.90;;;;;;5035266;28;20462;-71
2023/04/25 06:47:51;;;;;;;19.40;6.10;;;10.40;99.90;;;;;;5034740;28;20068;-69
2023/04/25 06:50:16;;;;;;;10.50;2.00;;;11.30;99.90;;;;;;5036633;28;20029;-70
2023/04/25 06:52:42;;;;;;;12.30;3.38;;;12.30;99.90;;;;;;5035503;28;20087;-70
2023/04/25 06:55:08;;;;;;;11.70;3.05;;;13.30;99.10;;;;;;5033728;28;20084;-69
2023/04/25 06:57:33;;;;;;;12.40;2.90;;;14.20;97.90;;;;;;5035498;28;20488;-70
2023/04/25 06:59:59;;;;;;;13.43;3.88;;;14.50;96.20;;;;;;5035125;28;20021;-71
2023/04/25 07:02:24;;;;;;;11.93;2.63;;;14.60;96.40;;;;;;5035430;28;20367;-70
2023/04/25 07:04:50;;;;;;;11.10;2.15;;;14.60;96.00;;;;;;5034280;28;20076;-70
2023/04/25 07:07:16;;;;;;;5.97;2.38;;;14.80;95.90;;;;;;5035059;28;20064;-71
2023/04/25 07:09:42;;;;;;;6.63;2.20;;;14.80;95.30;;;;;;5035030;28;20056;-71
2023/04/25 07:12:07;;;;;;;9.35;1.83;;;14.80;95.30;;;;;;5034810;28;20463;-70
2023/04/25 07:14:33;;;;;;;9.05;2.60;;;14.40;94.60;;;;;;5034832;28;20026;-71
2023/04/25 07:16:59;;;;;;;15.20;2.75;;;13.60;95.60;;;;;;5034140;28;20025;-71
2023/04/25 07:19:26;;;;;;;12.25;2.45;;;13.00;96.70;;;;;;5033562;28;20496;-71
2023/04/25 07:21:52;;;;;;;9.73;1.70;;;12.60;97.20;;;;;;5030904;28;20033;-70
2023/04/25 07:24:17;;;;;;;5.25;2.00;;;12.30;97.90;;;;;;5034697;28;20036;-70
2023/04/25 07:26:43;;;;;;;12.98;3.42;;;12.00;98.30;;;;;;5033222;28;20056;-70
2023/04/25 07:29:09;;;;;;;10.45;2.60;;;11.70;99.00;;;;;;5035067;28;20454;-71
2023/04/25 07:31:35;;;;;;;9.80;2.50;;;11.40;99.90;;;;;;5050427;28;20033;-70
2023/04/25 07:34:01;;;;;;;10.93;2.05;;;11.30;99.90;;;;;;5034588;28;20416;-70
2023/04/25 07:36:27;;;;;;;9.65;1.50;;;11.40;99.90;;;;;;5033197;28;20048;-70
2023/04/25 07:38:52;;;;;;;11.98;2.33;;;11.40;99.90;;;;;;5033795;28;20040;-70
2023/04/25 07:41:18;;;;;;;7.07;2.30;;;11.40;99.90;;;;;;5033060;28;20033;-71
2023/04/25 07:43:43;;;;;;;11.90;2.10;;;11.70;99.90;;;;;;5029826;28;20457;-70
2023/04/25 07:46:09;;;;;;;13.90;2.50;;;12.00;99.90;;;;;;5034249;28;20025;-70
2023/04/25 07:48:34;;;;;;;9.88;2.75;;;12.50;99.90;;;;;;5032868;28;20060;-71
2023/04/25 07:51:00;;;;;;;9.55;1.60;;;12.70;99.10;;;;;;5032954;28;20037;-71
2023/04/25 07:53:26;;;;;;;10.75;2.00;;;12.60;98.40;;;;;;5033923;28;20036;-69
2023/04/25 07:55:51;;;;;;;12.02;1.95;;;12.30;97.90;;;;;;5033502;28;20481;-70
2023/04/25 07:58:21;;;;;;;10.00;2.10;;;12.00;98.20;;;;;;5034228;28;20041;-69
2023/04/25 08:00:46;;;;;;;11.77;2.10;;;11.80;98.90;;;;;;5034216;28;20392;-71
2023/04/25 08:03:12;;;;;;;7.60;1.55;;;11.80;99.10;;;;;;5033070;28;20464;-71
2023/04/25 08:05:37;;;;;;;6.93;1.85;;;12.30;99.00;;;;;;5033603;28;20017;-71
2023/04/25 08:08:06;;;;;;;6.90;1.60;;;13.20;97.60;;;;;;5033779;28;20041;-71
2023/04/25 08:10:32;;;;;;;6.55;1.38;;;14.20;95.20;;;;;;5032544;28;20040;-70
2023/04/25 08:12:58;;;;;;;8.13;1.52;;;14.80;95.00;;;;;;5033424;28;20539;-71
2023/04/25 08:15:38;;;;;;;9.10;1.88;;;15.60;93.90;;;;;;5031035;28;20091;-70
2023/04/25 08:18:03;;;;;;;5.97;1.60;;;16.50;93.80;;;;;;5020867;28;20055;-71
2023/04/25 08:20:29;;;;;;;6.28;2.20;;;16.60;94.00;;;;;;5033679;28;20470;-71
2023/04/25 08:22:54;;;;;;;8.43;2.45;;;15.90;94.90;;;;;;5033318;28;20546;-70
2023/04/25 08:25:20;;;;;;;13.48;3.88;;;15.40;95.80;;;;;;5033117;28;20033;-70
2023/04/25 08:27:46;;;;;;;11.45;3.17;;;15.80;95.20;;;;;;5033629;28;20131;-70
2023/04/25 08:30:11;;;;;;;12.30;2.70;;;16.60;93.60;;;;;;5033332;28;20026;-71
2023/04/25 08:32:40;;;;;;;6.10;1.85;;;17.30;93.20;;;;;;5033311;28;20026;-69
2023/04/25 08:35:06;;;;;;;3.58;1.33;;;17.90;92.00;;;;;;5033345;28;20124;-70
2023/04/25 08:37:32;;;;;;;7.28;2.25;;;18.40;90.60;;;;;;5033533;28;20112;-71
2023/04/25 08:39:57;;;;;;;8.00;2.95;;;18.10;91.00;;;;;;5033574;28;20052;-70
2023/04/25 08:42:24;;;;;;;6.90;1.55;;;17.30;91.60;;;;;;5032621;28;20781;-70
2023/04/25 08:44:50;;;;;;;8.60;2.00;;;16.40;91.80;;;;;;5031609;28;20025;-70
2023/04/25 08:47:17;;;;;;;5.70;1.98;;;15.70;91.60;;;;;;5032129;28;20548;-70
2023/04/25 08:49:46;;;;;;;6.78;1.65;;;15.10;91.80;;;;;;5031541;28;20053;-70
2023/04/25 08:52:13;;;;;;;5.70;2.22;;;14.70;92.40;;;;;;5031714;28;20496;-69
2023/04/25 08:54:45;;;;;;;5.55;0.93;;;14.60;92.50;;;;;;5032024;28;20056;-70
2023/04/25 08:57:11;;;;;;;;;;;14.90;92.90;;;;;;5032049;28;20376;-70
2023/04/25 08:59:39;;;;;;;7.55;1.80;;;15.80;93.30;;;;;;5031751;28;20005;-69
2023/04/25 09:02:04;;;;;;;8.02;2.95;;;16.80;92.50;;;;;;5031157;28;20436;-70
2023/04/25 09:04:33;;;;;;;6.05;1.52;;;17.30;91.60;;;;;;5031825;28;20533;-70
2023/04/25 09:06:58;;;;;;;5.82;1.15;;;17.50;91.40;;;;;;5032720;28;20073;-69
2023/04/25 09:09:24;;;;;;;4.60;1.42;;;17.70;90.40;;;;;;5032731;28;20053;-69
2023/04/25 09:11:50;;;;;;;7.63;1.80;;;18.10;89.20;;;;;;5033062;28;20392;-71
2023/04/25 09:14:20;;;;;;;4.30;1.50;;;19.30;89.00;;;;;;5033141;28;20766;-69
2023/04/25 09:16:55;;;;;;;8.75;1.60;;;20.40;85.90;;;;;;5033001;28;20041;-69
2023/04/25 09:19:28;;;;;;;6.45;1.20;;;21.70;82.70;;;;;;5033030;28;20506;-71
2023/04/25 09:21:55;;;;;;;11.95;1.92;;;22.50;81.10;;;;;;5032869;28;20033;-71
2023/04/25 09:24:38;;;;;;;9.93;2.30;;;23.30;78.00;;;;;;5032957;28;20094;-70
2023/04/25 09:27:05;;;;;;;8.25;1.73;;;24.20;77.30;;;;;;5031647;28;20057;-70
2023/04/25 09:29:35;;;;;;;15.60;2.35;;;24.90;75.20;;;;;;5032944;28;20030;-70
2023/04/25 09:32:19;;;;;;;11.57;1.60;;;24.30;73.00;;;;;;5033083;28;20198;-70
2023/04/25 09:34:49;;;;;;;7.22;1.70;;;23.90;73.50;;;;;;5032886;28;20033;-71
2023/04/25 09:37:27;;;;;;;8.90;1.75;;;23.70;72.90;;;;;;5032984;28;20033;-71
2023/04/25 09:39:55;;;;;;;4.55;1.58;;;24.10;72.90;;;;;;5032845;28;20075;-69
2023/04/25 09:42:25;;;;;;;11.18;2.67;;;24.10;72.30;;;;;;5032923;28;20061;-70
2023/04/25 09:44:55;;;;;;;6.72;1.88;;;23.80;71.70;;;;;;5032584;28;20033;-69
2023/04/25 09:47:23;;;;;;;9.38;2.63;;;23.00;74.20;;;;;;5032655;28;20037;-70
2023/04/25 09:49:49;;;;;;;5.45;2.08;;;21.90;74.00;;;;;;5032483;28;20025;-69
2023/04/25 09:52:19;;;;;;;6.40;1.90;;;20.50;77.70;;;;;;5032248;28;20116;-69
2023/04/25 09:54:47;;;;;;;5.72;1.80;;;19.30;80.30;;;;;;5032758;28;20044;-68
2023/04/25 09:57:15;;;;;;;6.25;2.13;;;18.30;83.50;;;;;;5032772;28;20112;-70
2023/04/25 09:59:46;;;;;;;7.13;1.30;;;17.50;82.30;;;;;;5032595;28;20069;-70
2023/04/25 10:02:13;;;;;;;1.83;0.85;;;16.80;81.80;;;;;;5032760;28;20053;-70
2023/04/25 10:04:40;;;;;;;7.53;2.03;;;16.60;83.20;;;;;;5032434;28;20036;-71
2023/04/25 10:07:07;;;;;;;5.05;1.35;;;16.90;82.60;;;;;;5032493;28;20501;-70
2023/04/25 10:09:36;;;;;;;4.10;1.00;;;17.50;80.60;;;;;;5032598;28;20030;-71
2023/04/25 10:12:03;;;;;;;8.65;1.35;;;18.50;79.50;;;;;;5031864;28;20036;-70
2023/04/25 10:14:31;;;;;;;6.93;1.95;;;19.90;79.60;;;;;;5030953;28;20449;-70
2023/04/25 10:16:57;;;;;;;6.28;2.10;;;21.40;77.30;;;;;;5030770;28;20067;-70
2023/04/25 10:19:24;;;;;;;6.60;1.88;;;22.50;74.30;;;;;;5030912;28;20036;-70
2023/04/25 10:21:57;;;;;;;8.07;1.50;;;23.10;73.00;;;;;;5030882;28;20029;-70
2023/04/25 10:24:25;;;;;;;8.27;1.98;;;24.00;71.90;;;;;;5030668;28;20018;-70
2023/04/25 10:26:51;;;;;;;7.75;1.75;;;24.90;70.80;;;;;;5030178;28;20051;-71
2023/04/25 10:29:26;;;;;;;4.82;1.98;;;24.80;70.20;;;;;;5030358;28;20037;-71
2023/04/25 10:31:52;;;;;;;8.82;2.03;;;24.50;69.00;;;;;;5029476;28;20082;-71
2023/04/25 10:34:18;;;;;;;9.23;2.08;;;23.50;72.10;;;;;;5031636;28;20025;-70
2023/04/25 10:36:51;;;;;;;8.35;1.83;;;22.30;73.60;;;;;;5034847;28;20056;-70
2023/04/25 10:39:23;;;;;;;7.75;1.60;;;21.00;75.40;;;;;;5032027;28;20025;-70
2023/04/25 10:41:58;;;;;;;4.78;1.25;;;20.70;75.80;;;;;;5034434;28;20025;-70
2023/04/25 10:44:31;;;;;;;10.93;1.90;;;21.50;73.30;;;;;;5034001;28;20088;-71
2023/04/25 10:46:58;;;;;;;3.97;0.98;;;21.60;71.70;;;;;;5032131;28;20053;-70
2023/04/25 10:49:35;;;;;;;6.43;1.80;;;21.40;70.20;;;;;;5034152;28;20032;-70
2023/04/25 10:52:26;;;;;;;8.55;1.42;;;21.10;72.00;;;;;;5032528;28;20056;-71
2023/04/25 10:54:51;;;;;;;9.43;1.45;;;21.50;72.50;;;;;;5029905;28;20176;-71
2023/04/25 10:57:40;;;;;;;6.60;2.10;;;20.90;72.90;;;;;;5037020;28;20121;-70
2023/04/25 11:00:19;;;;;;;7.53;1.92;;;20.70;75.50;;;;;;5035345;28;20026;-71
2023/04/25 11:02:47;;;;;;;7.63;1.45;;;21.70;74.10;;;;;;5033772;28;20026;-69
2023/04/25 11:05:26;;;;;;;6.78;1.38;;;22.80;72.30;;;;;;5043809;28;20037;-70
2023/04/25 11:07:57;;;;;;;7.57;1.73;;;23.70;70.00;;;;;;5049454;28;20033;-69
2023/04/25 11:10:26;;;;;;;7.07;1.70;;;24.30;70.30;;;;;;5045237;28;20036;-69
2023/04/25 11:12:52;;;;;;;6.82;1.38;;;24.70;69.00;;;;;;5040815;28;20029;-69
2023/04/25 11:15:18;;;;;;;5.47;1.40;;;24.50;68.20;;;;;;5035810;28;20355;-70
2023/04/25 11:17:46;;;;;;;8.20;1.63;;;24.60;68.70;;;;;;5050425;28;21053;-69
2023/04/25 11:20:13;;;;;;;9.93;1.40;;;24.60;67.60;;;;;;5043560;28;20025;-69
2023/04/25 11:22:42;;;;;;;6.40;1.23;;;24.40;65.90;;;;;;5042409;28;20393;-70
2023/04/25 11:25:09;;;;;;;6.60;1.10;;;23.80;69.50;;;;;;5040720;28;20091;-70
2023/04/25 11:27:58;;;;;;;7.68;1.73;;;23.10;71.70;;;;;;5036623;28;20444;-70
2023/04/25 11:30:25;;;;;;;7.95;1.55;;;23.00;73.30;;;;;;5044395;28;20038;-70
2023/04/25 11:32:51;;;;;;;7.30;1.10;;;23.00;71.30;;;;;;5048677;28;20040;-70
2023/04/25 11:35:18;;;;;;;3.45;0.80;;;22.90;70.00;;;;;;5038173;28;20021;-70
2023/04/25 11:37:44;;;;;;;3.65;1.10;;;22.70;68.90;;;;;;5049971;28;20025;-70
2023/04/25 11:40:11;;;;;;;5.05;1.20;;;22.40;70.50;;;;;;5042759;28;20075;-70
2023/04/25 11:42:38;;;;;;;3.83;0.82;;;22.00;69.30;;;;;;5042312;28;20032;-70
2023/04/25 11:45:04;;;;;;;4.55;1.20;;;21.20;68.90;;;;;;5050133;28;20487;-70
2023/04/25 11:47:33;;;;;;;2.72;0.90;;;20.40;70.60;;;;;;5036574;28;20386;-70
2023/04/25 11:50:00;;;;;;;5.88;1.15;;;19.80;72.30;;;;;;5053602;28;20067;-70
2023/04/25 11:52:43;;;;;;;6.60;1.10;;;19.40;72.60;;;;;;5043624;28;20044;-71
2023/04/25 11:55:12;;;;;;;4.10;1.10;;;19.70;73.60;;;;;;5049910;28;20112;-70
2023/04/25 11:57:39;;;;;;;5.60;1.80;;;20.50;72.30;;;;;;5022263;28;20794;-70
2023/04/25 12:00:12;;;;;;;5.32;1.40;;;21.70;71.70;;;;;;5046534;28;20034;-70
2023/04/25 12:02:40;;;;;;;5.05;1.42;;;22.80;68.80;;;;;;5046119;28;20457;-70
2023/04/25 12:05:08;;;;;;;4.35;1.30;;;23.10;66.20;;;;;;5037796;28;20410;-71
2023/04/25 12:07:34;;;;;;;6.78;1.13;;;22.90;67.00;;;;;;5049842;28;20486;-70
2023/04/25 12:10:03;;;;;;;7.18;1.02;;;23.10;67.70;;;;;;5040993;28;20035;-70
2023/04/25 12:12:33;;;;;;;6.35;1.60;;;23.50;67.70;;;;;;5042930;28;20037;-70
2023/04/25 12:15:15;;;;;;;6.18;1.80;;;23.90;66.60;;;;;;5048951;28;20025;-70
2023/04/25 12:17:44;;;;;;;;;;;23.90;65.40;;;;;;5023095;28;20021;-70
2023/04/25 12:20:15;;;;;;;9.10;2.40;;;23.70;66.50;;;;;;5042670;28;19913;-70
2023/04/25 12:22:44;;;;;;;5.10;1.58;;;23.90;66.30;;;;;;5035428;28;20029;-70
2023/04/25 12:25:11;;;;;;;6.15;1.80;;;24.10;66.70;;;;;;5049263;28;20036;-70
2023/04/25 12:27:36;;;;;;;6.13;1.65;;;24.20;65.20;;;;;;5020892;28;20473;-70
2023/04/25 12:30:03;;;;;;;5.05;1.58;;;23.60;66.60;;;;;;5046508;28;20026;-70
2023/04/25 12:32:29;;;;;;;3.63;0.95;;;22.70;66.70;;;;;;5044038;28;20071;-69
2023/04/25 12:34:54;;;;;;;4.03;1.23;;;22.40;67.40;;;;;;5039187;28;20025;-69
2023/04/25 12:37:20;;;;;;;5.32;1.08;;;22.30;67.20;;;;;;5049944;28;20466;-70
2023/04/25 12:39:46;;;;;;;5.80;1.23;;;22.20;67.60;;;;;;5038379;28;20044;-70
2023/04/25 12:42:11;;;;;;;6.40;1.08;;;22.10;68.80;;;;;;5045344;28;20065;-70
2023/04/25 12:44:38;;;;;;;6.13;1.30;;;22.20;69.70;;;;;;5045388;28;20021;-71
2023/04/25 12:47:05;;;;;;;6.18;1.45;;;22.30;69.20;;;;;;5037337;28;20052;-70